Time;durP1;ratioP1;P1;durP2;ratioP2;P2;SDS_P1;SDS_P2;PMS_P1;PMS_P2;Temp;Humidity;BMP_temperature;BMP_pressure;BME280_temperature;BME280_humidity;BME280_pressure;Samples;Min_cycle;Max_cycle;Signal;HPM_P1;HPM_P2
2021/07/16 00:00:10;;;;;;;1.17;0.30;;;10.60;66.50;;;;;;5008902;28;20104;-67
2021/07/16 00:02:36;;;;;;;0.20;0.20;;;10.60;66.30;;;;;;5012910;28;20010;-66
2021/07/16 00:05:04;;;;;;;0.77;0.38;;;10.60;65.70;;;;;;5013224;28;20921;-66
2021/07/16 00:07:31;;;;;;;0.95;0.60;;;10.60;66.20;;;;;;5009793;28;20061;-66
2021/07/16 00:09:57;;;;;;;0.40;0.20;;;10.50;65.90;;;;;;5012691;28;20075;-66
2021/07/16 00:12:24;;;;;;;2.05;0.50;;;10.60;65.50;;;;;;5010756;28;20026;-67
2021/07/16 00:14:51;;;;;;;1.00;0.28;;;10.60;65.20;;;;;;5008849;28;20113;-67
2021/07/16 00:17:17;;;;;;;3.20;0.40;;;10.50;65.20;;;;;;5012652;28;20064;-66
2021/07/16 00:19:44;;;;;;;3.03;1.60;;;10.50;65.70;;;;;;5010721;28;20421;-66
2021/07/16 00:22:10;;;;;;;2.35;0.45;;;10.40;66.40;;;;;;5009829;28;20084;-67
2021/07/16 00:24:37;;;;;;;0.85;0.30;;;10.40;66.60;;;;;;5009026;28;20033;-66
2021/07/16 00:27:05;;;;;;;0.75;0.60;;;10.40;66.80;;;;;;5011408;28;20047;-66
2021/07/16 00:29:31;;;;;;;0.65;0.20;;;10.40;67.20;;;;;;5008723;28;20030;-67
2021/07/16 00:31:58;;;;;;;0.47;0.40;;;10.40;66.90;;;;;;5009801;28;20426;-66
2021/07/16 00:34:24;;;;;;;0.80;0.25;;;10.30;66.90;;;;;;5014714;28;20018;-66
2021/07/16 00:36:50;;;;;;;0.20;0.20;;;10.30;66.90;;;;;;5015907;28;20025;-66
2021/07/16 00:39:17;;;;;;;1.52;0.30;;;10.30;67.30;;;;;;5013169;28;20046;-66
2021/07/16 00:41:44;;;;;;;10.77;0.73;;;10.30;67.50;;;;;;5014337;28;20017;-66
2021/07/16 00:44:12;;;;;;;2.97;0.45;;;10.30;68.10;;;;;;5015532;28;20038;-66
2021/07/16 00:46:39;;;;;;;3.38;1.60;;;10.20;67.70;;;;;;5016186;28;20026;-67
2021/07/16 00:49:05;;;;;;;1.05;0.55;;;10.20;67.50;;;;;;5012103;28;20030;-66
2021/07/16 00:51:32;;;;;;;2.08;0.50;;;10.20;67.60;;;;;;5012574;28;20021;-67
2021/07/16 00:53:58;;;;;;;0.68;0.47;;;10.10;67.80;;;;;;5012947;28;20401;-66
2021/07/16 00:56:25;;;;;;;0.88;0.88;;;10.10;67.80;;;;;;5012405;28;20089;-66
2021/07/16 00:58:53;;;;;;;0.35;0.22;;;10.20;67.70;;;;;;5004337;28;20399;-66
2021/07/16 01:01:19;;;;;;;1.15;0.40;;;10.20;67.80;;;;;;5012528;28;20037;-67
2021/07/16 01:03:49;;;;;;;1.35;0.50;;;10.20;67.70;;;;;;5014002;28;20034;-66
2021/07/16 01:06:15;;;;;;;1.75;0.60;;;10.20;68.20;;;;;;5017384;28;20539;-66
2021/07/16 01:08:42;;;;;;;2.03;0.82;;;10.20;67.90;;;;;;5010277;28;20022;-67
2021/07/16 01:11:08;;;;;;;1.35;0.55;;;10.20;67.90;;;;;;5012337;28;20041;-67
2021/07/16 01:13:35;;;;;;;1.02;0.50;;;10.10;67.50;;;;;;5013747;28;20029;-66
2021/07/16 01:16:01;;;;;;;1.20;0.45;;;10.10;67.20;;;;;;5013926;28;20191;-66
2021/07/16 01:18:28;;;;;;;1.00;0.40;;;10.10;67.60;;;;;;5012251;28;20092;-67
2021/07/16 01:20:55;;;;;;;1.02;0.70;;;10.10;66.90;;;;;;5014818;28;20044;-66
2021/07/16 01:23:23;;;;;;;1.42;0.70;;;10.10;66.60;;;;;;5011384;28;20022;-66
2021/07/16 01:25:51;;;;;;;0.52;0.30;;;10.00;66.40;;;;;;5012990;28;20030;-66
2021/07/16 01:28:19;;;;;;;1.00;0.50;;;10.00;66.80;;;;;;5014918;28;20022;-66
2021/07/16 01:30:47;;;;;;;1.15;0.55;;;10.00;66.60;;;;;;5010356;28;20053;-66
2021/07/16 01:33:14;;;;;;;0.50;0.38;;;9.90;66.20;;;;;;5012406;28;20101;-66
2021/07/16 01:35:41;;;;;;;2.20;0.80;;;9.90;66.10;;;;;;5016233;28;20480;-67
2021/07/16 01:38:07;;;;;;;0.40;0.40;;;10.00;66.10;;;;;;5012860;28;20022;-67
2021/07/16 01:40:37;;;;;;;1.30;0.50;;;10.00;66.60;;;;;;5012501;28;20429;-66
2021/07/16 01:43:08;;;;;;;0.52;0.50;;;10.00;67.00;;;;;;5010568;28;20574;-66
2021/07/16 01:45:40;;;;;;;0.88;0.30;;;10.00;66.90;;;;;;5013457;28;20989;-66
2021/07/16 01:48:17;;;;;;;0.30;0.20;;;9.90;67.60;;;;;;5009566;28;20389;-67
2021/07/16 01:50:48;;;;;;;1.05;0.35;;;10.00;67.60;;;;;;5008606;28;20017;-67
2021/07/16 01:53:17;;;;;;;0.70;0.20;;;9.90;67.30;;;;;;5014215;28;20021;-67
2021/07/16 01:55:44;;;;;;;0.30;0.30;;;9.90;67.20;;;;;;5012140;28;20104;-67
2021/07/16 01:58:12;;;;;;;0.20;0.20;;;9.90;67.50;;;;;;5015715;28;20029;-67
2021/07/16 02:00:47;;;;;;;0.43;0.25;;;9.90;67.60;;;;;;5009334;28;20034;-67
2021/07/16 02:03:16;;;;;;;0.30;0.30;;;9.90;68.00;;;;;;5011692;28;20025;-66
2021/07/16 02:05:45;;;;;;;0.73;0.28;;;9.90;68.20;;;;;;5012523;28;20449;-66
2021/07/16 02:08:18;;;;;;;1.48;0.30;;;9.80;68.10;;;;;;5009652;28;20469;-66
2021/07/16 02:10:47;;;;;;;0.50;0.30;;;9.80;68.60;;;;;;5011839;28;20072;-66
2021/07/16 02:13:14;;;;;;;0.20;0.20;;;9.80;68.80;;;;;;5013703;28;20022;-66
2021/07/16 02:15:43;;;;;;;2.15;0.40;;;9.80;69.30;;;;;;5012165;28;20179;-66
2021/07/16 02:18:10;;;;;;;0.50;0.32;;;9.70;69.10;;;;;;5012814;28;20069;-66
2021/07/16 02:20:39;;;;;;;1.10;0.35;;;9.80;69.10;;;;;;5012650;28;20022;-67
2021/07/16 02:23:12;;;;;;;0.75;0.75;;;9.70;68.90;;;;;;5015326;28;20026;-66
2021/07/16 02:25:39;;;;;;;0.30;0.28;;;9.80;68.90;;;;;;5012579;28;20034;-66
2021/07/16 02:28:12;;;;;;;2.95;0.73;;;9.80;68.80;;;;;;5014225;28;20718;-66
2021/07/16 02:30:38;;;;;;;0.20;0.20;;;9.70;68.80;;;;;;5008941;28;20646;-66
2021/07/16 02:33:05;;;;;;;2.72;0.65;;;9.70;69.60;;;;;;5010872;28;20018;-66
2021/07/16 02:35:32;;;;;;;0.65;0.65;;;9.60;69.30;;;;;;5013983;28;20025;-67
2021/07/16 02:38:00;;;;;;;1.58;0.38;;;9.50;69.60;;;;;;5010526;28;20022;-66
2021/07/16 02:40:27;;;;;;;1.60;0.38;;;9.50;70.30;;;;;;5011142;28;20006;-66
2021/07/16 02:42:54;;;;;;;0.10;0.10;;;9.50;70.50;;;;;;5011969;28;20351;-66
2021/07/16 02:45:22;;;;;;;1.02;0.40;;;9.40;70.70;;;;;;5008772;28;20120;-66
2021/07/16 02:47:50;;;;;;;3.33;1.55;;;9.40;70.70;;;;;;5011661;28;20025;-66
2021/07/16 02:50:21;;;;;;;4.80;3.97;;;9.40;71.00;;;;;;5011113;28;20026;-67
2021/07/16 02:52:47;;;;;;;3.28;1.02;;;9.50;70.90;;;;;;5008818;28;20049;-66
2021/07/16 02:55:14;;;;;;;0.88;0.43;;;9.40;70.50;;;;;;5012725;28;20034;-66
2021/07/16 02:57:41;;;;;;;0.85;0.40;;;9.40;70.60;;;;;;5007639;28;20034;-67
2021/07/16 03:00:11;;;;;;;0.30;0.30;;;9.40;71.00;;;;;;5012014;28;20064;-67
2021/07/16 03:02:42;;;;;;;1.15;0.50;;;9.40;70.80;;;;;;5012615;28;20018;-67
2021/07/16 03:05:18;;;;;;;2.05;1.05;;;9.40;70.70;;;;;;5008902;28;20392;-67
2021/07/16 03:07:46;;;;;;;2.00;1.00;;;9.40;70.80;;;;;;5013079;28;20029;-67
2021/07/16 03:10:19;;;;;;;2.00;0.75;;;9.40;70.80;;;;;;5011341;28;20110;-67
2021/07/16 03:12:46;;;;;;;1.38;1.08;;;9.40;70.80;;;;;;5008596;28;20033;-67
2021/07/16 03:15:18;;;;;;;1.08;0.70;;;9.40;70.90;;;;;;5012297;28;20033;-67
2021/07/16 03:17:45;;;;;;;2.00;1.02;;;9.40;70.70;;;;;;5010218;28;20046;-67
2021/07/16 03:20:36;;;;;;;0.98;0.88;;;9.40;70.80;;;;;;5011888;28;20022;-67
2021/07/16 03:23:05;;;;;;;1.35;0.90;;;9.40;70.80;;;;;;5010845;28;20075;-66
2021/07/16 03:25:32;;;;;;;1.60;0.50;;;9.40;70.40;;;;;;5009085;28;20030;-67
2021/07/16 03:27:59;;;;;;;2.08;0.90;;;9.40;70.40;;;;;;5010142;28;20088;-67
2021/07/16 03:30:28;;;;;;;1.58;0.90;;;9.40;70.50;;;;;;5009591;28;20409;-67
2021/07/16 03:32:56;;;;;;;2.72;0.95;;;9.40;70.40;;;;;;5013693;28;20014;-66
2021/07/16 03:35:23;;;;;;;2.28;1.10;;;9.40;70.30;;;;;;5010173;28;20018;-67
2021/07/16 03:37:50;;;;;;;1.08;0.90;;;9.40;70.40;;;;;;5011835;28;20500;-67
2021/07/16 03:40:22;;;;;;;1.55;1.02;;;9.40;70.70;;;;;;5010805;28;20084;-67
2021/07/16 03:42:50;;;;;;;1.45;0.88;;;9.40;70.50;;;;;;5011010;28;20033;-66
2021/07/16 03:45:18;;;;;;;10.40;7.18;;;9.40;70.10;;;;;;5009118;28;20045;-67
2021/07/16 03:47:47;;;;;;;67.45;46.13;;;9.30;70.30;;;;;;5013006;28;20362;-67
2021/07/16 03:50:16;;;;;;;11.18;7.18;;;9.30;70.60;;;;;;5011862;28;20026;-67
2021/07/16 03:52:43;;;;;;;3.60;1.50;;;9.30;70.90;;;;;;5009081;28;20018;-67
2021/07/16 03:55:11;;;;;;;2.35;1.45;;;9.30;71.10;;;;;;5012406;28;20033;-67
2021/07/16 03:57:42;;;;;;;1.85;0.90;;;9.30;70.70;;;;;;5009024;28;20018;-67
2021/07/16 04:00:10;;;;;;;1.33;0.93;;;9.30;70.60;;;;;;5011209;28;20069;-71
2021/07/16 04:02:37;;;;;;;1.17;0.98;;;9.30;70.80;;;;;;5010664;28;20050;-67
2021/07/16 04:05:04;;;;;;;2.72;1.13;;;9.30;71.00;;;;;;5011677;28;20034;-68
2021/07/16 04:07:33;;;;;;;0.95;0.63;;;9.30;71.00;;;;;;5010610;28;20040;-67
2021/07/16 04:10:00;;;;;;;3.55;1.20;;;9.20;70.90;;;;;;5014051;28;20021;-68
2021/07/16 04:12:26;;;;;;;2.08;1.05;;;9.20;70.80;;;;;;5014600;28;20075;-71
2021/07/16 04:14:55;;;;;;;2.15;1.30;;;9.30;70.80;;;;;;5006880;28;20037;-67
2021/07/16 04:17:24;;;;;;;3.53;1.27;;;9.20;70.90;;;;;;5011797;28;20026;-69
2021/07/16 04:19:51;;;;;;;3.22;1.80;;;9.20;71.20;;;;;;5013964;28;20437;-67
2021/07/16 04:22:19;;;;;;;14.07;6.63;;;9.10;71.70;;;;;;5011245;28;20029;-65
2021/07/16 04:24:46;;;;;;;3.55;2.75;;;9.10;71.80;;;;;;5012815;28;20481;-67
2021/07/16 04:27:14;;;;;;;11.45;7.25;;;9.10;72.10;;;;;;5011231;28;20060;-67
2021/07/16 04:29:42;;;;;;;7.88;3.60;;;9.10;72.10;;;;;;5012470;28;20053;-68
2021/07/16 04:32:10;;;;;;;4.93;3.03;;;9.10;72.20;;;;;;5006839;28;20563;-69
2021/07/16 04:34:37;;;;;;;1.98;1.50;;;9.10;72.10;;;;;;5012070;28;20064;-67
2021/07/16 04:37:06;;;;;;;1.60;1.27;;;9.10;72.00;;;;;;5011458;28;20080;-68
2021/07/16 04:39:34;;;;;;;2.05;1.20;;;9.10;71.80;;;;;;5012962;28;20053;-68
2021/07/16 04:42:01;;;;;;;1.27;1.05;;;9.10;72.00;;;;;;5013528;28;20117;-71
2021/07/16 04:44:27;;;;;;;1.85;1.25;;;9.00;71.80;;;;;;5011662;28;20094;-70
2021/07/16 04:46:56;;;;;;;8.02;1.75;;;9.00;71.60;;;;;;5013472;28;20379;-73
2021/07/16 04:49:23;;;;;;;2.30;1.45;;;9.00;71.80;;;;;;5011556;28;20108;-68
2021/07/16 04:51:49;;;;;;;3.38;1.48;;;9.00;71.80;;;;;;5012792;28;20097;-67
2021/07/16 04:54:16;;;;;;;2.63;1.10;;;9.00;71.70;;;;;;5011942;28;20022;-68
2021/07/16 04:56:44;;;;;;;3.65;1.23;;;8.90;72.10;;;;;;5011218;28;20006;-67
2021/07/16 04:59:10;;;;;;;2.75;1.00;;;8.90;72.30;;;;;;5013650;28;20021;-68
2021/07/16 05:01:37;;;;;;;4.57;1.00;;;8.90;72.40;;;;;;5009701;28;20026;-68
2021/07/16 05:04:04;;;;;;;1.77;1.20;;;8.90;72.60;;;;;;5015090;28;20505;-68
2021/07/16 05:06:30;;;;;;;1.02;0.75;;;8.90;72.30;;;;;;5009722;28;20024;-68
2021/07/16 05:08:57;;;;;;;1.85;1.15;;;8.90;72.30;;;;;;5011386;28;20420;-68
2021/07/16 05:11:23;;;;;;;1.25;0.70;;;8.90;72.20;;;;;;5010122;28;20034;-68
2021/07/16 05:13:50;;;;;;;1.52;1.23;;;8.90;72.00;;;;;;5010869;28;20375;-67
2021/07/16 05:16:18;;;;;;;3.80;1.50;;;8.80;71.90;;;;;;5010737;28;20017;-68
2021/07/16 05:18:45;;;;;;;2.30;1.60;;;8.80;72.00;;;;;;5008306;28;20050;-68
2021/07/16 05:21:13;;;;;;;2.70;1.52;;;8.90;71.80;;;;;;5010790;28;20037;-68
2021/07/16 05:23:40;;;;;;;7.00;2.22;;;8.80;72.00;;;;;;5008691;28;20045;-67
2021/07/16 05:26:07;;;;;;;2.35;0.90;;;8.80;71.90;;;;;;5012003;28;20054;-68
2021/07/16 05:28:33;;;;;;;2.10;1.42;;;8.80;72.10;;;;;;5011361;28;20033;-67
2021/07/16 05:31:00;;;;;;;3.70;1.08;;;8.80;72.70;;;;;;5011011;28;20014;-67
2021/07/16 05:33:26;;;;;;;4.95;1.15;;;8.80;72.90;;;;;;5009069;28;20026;-67
2021/07/16 05:35:53;;;;;;;2.40;1.58;;;8.80;72.90;;;;;;5009162;28;20016;-67
2021/07/16 05:38:22;;;;;;;3.55;1.88;;;8.80;73.00;;;;;;5010716;28;20030;-68
2021/07/16 05:40:49;;;;;;;2.33;1.75;;;8.80;72.60;;;;;;5013094;28;20029;-68
2021/07/16 05:43:16;;;;;;;4.40;2.53;;;8.80;72.60;;;;;;5015078;28;20083;-68
2021/07/16 05:45:43;;;;;;;3.55;2.63;;;8.70;72.60;;;;;;5010998;28;20046;-68
2021/07/16 05:48:11;;;;;;;5.07;3.08;;;8.70;72.60;;;;;;5013106;28;20079;-68
2021/07/16 05:50:39;;;;;;;5.65;2.45;;;8.70;72.60;;;;;;5011208;28;20018;-68
2021/07/16 05:53:07;;;;;;;8.15;3.33;;;8.70;72.50;;;;;;5012486;28;20124;-68
2021/07/16 05:55:34;;;;;;;4.68;2.42;;;8.70;72.40;;;;;;5011504;28;20479;-67
2021/07/16 05:58:01;;;;;;;7.05;2.67;;;8.70;72.00;;;;;;5010360;28;20211;-68
2021/07/16 06:00:28;;;;;;;3.47;3.03;;;8.70;72.00;;;;;;5011787;28;20041;-67
2021/07/16 06:02:55;;;;;;;6.03;3.25;;;8.70;72.30;;;;;;5010021;28;20041;-68
2021/07/16 06:05:22;;;;;;;4.30;3.35;;;8.70;72.20;;;;;;5011513;28;20068;-67
2021/07/16 06:07:49;;;;;;;5.65;3.47;;;8.70;72.00;;;;;;5011217;28;20109;-67
2021/07/16 06:10:15;;;;;;;4.07;3.00;;;8.80;72.50;;;;;;5009337;28;20526;-69
2021/07/16 06:12:42;;;;;;;7.18;3.42;;;8.80;72.60;;;;;;5012530;28;20544;-67
2021/07/16 06:15:11;;;;;;;20.88;15.50;;;8.70;72.40;;;;;;5010547;28;20509;-67
2021/07/16 06:17:38;;;;;;;17.90;10.00;;;8.80;72.70;;;;;;5003297;28;20041;-67
2021/07/16 06:20:08;;;;;;;6.05;4.25;;;8.70;72.60;;;;;;5009542;28;20034;-67
2021/07/16 06:22:35;;;;;;;4.50;3.20;;;8.80;73.30;;;;;;5011352;28;20029;-67
2021/07/16 06:25:02;;;;;;;4.88;2.50;;;8.70;72.80;;;;;;5009031;28;20034;-68
2021/07/16 06:27:29;;;;;;;3.45;2.90;;;8.70;73.10;;;;;;5008766;28;20026;-67
2021/07/16 06:29:57;;;;;;;4.45;2.28;;;8.80;73.20;;;;;;5012144;28;20049;-67
2021/07/16 06:32:24;;;;;;;5.75;2.20;;;8.80;73.20;;;;;;5009522;28;20022;-67
2021/07/16 06:34:50;;;;;;;4.50;3.33;;;8.80;73.10;;;;;;5011309;28;20026;-67
2021/07/16 06:37:17;;;;;;;6.47;3.50;;;8.80;73.50;;;;;;5007474;28;20040;-67
2021/07/16 06:39:43;;;;;;;9.18;3.00;;;8.80;73.60;;;;;;5010245;28;20010;-67
2021/07/16 06:42:10;;;;;;;6.32;2.92;;;8.90;73.80;;;;;;5004264;28;20026;-67
2021/07/16 06:44:36;;;;;;;3.17;2.47;;;8.90;73.80;;;;;;5012068;28;20037;-67
2021/07/16 06:47:03;;;;;;;2.83;1.95;;;8.90;73.80;;;;;;5010123;28;20380;-67
2021/07/16 06:49:30;;;;;;;5.30;4.18;;;8.90;74.00;;;;;;5010910;28;20076;-66
2021/07/16 06:51:59;;;;;;;35.97;24.20;;;8.90;74.40;;;;;;5009280;28;20103;-68
2021/07/16 06:54:27;;;;;;;14.98;9.55;;;8.90;74.80;;;;;;5009436;28;20018;-67
2021/07/16 06:56:54;;;;;;;5.10;3.63;;;9.00;75.20;;;;;;5009602;28;20018;-67
2021/07/16 06:59:22;;;;;;;5.68;2.92;;;9.00;75.50;;;;;;5010992;28;20013;-67
2021/07/16 07:01:48;;;;;;;3.83;2.25;;;9.00;75.30;;;;;;5010923;28;20095;-68
2021/07/16 07:04:15;;;;;;;3.40;1.95;;;9.10;75.50;;;;;;5012748;28;20396;-67
2021/07/16 07:06:42;;;;;;;6.85;3.15;;;9.10;75.30;;;;;;5007996;28;20037;-67
2021/07/16 07:09:09;;;;;;;3.60;2.30;;;9.20;75.50;;;;;;5010406;28;20017;-68
2021/07/16 07:11:36;;;;;;;2.97;2.17;;;9.20;75.60;;;;;;5009362;28;20026;-67
2021/07/16 07:14:03;;;;;;;7.32;3.10;;;9.30;75.80;;;;;;5011040;28;20034;-67
2021/07/16 07:16:30;;;;;;;3.78;2.70;;;9.30;76.40;;;;;;5009126;28;20103;-68
2021/07/16 07:18:57;;;;;;;6.18;3.40;;;9.40;76.50;;;;;;5009022;28;20050;-68
2021/07/16 07:21:23;;;;;;;6.40;3.20;;;9.50;76.70;;;;;;5010034;28;20030;-68
2021/07/16 07:23:50;;;;;;;8.70;3.47;;;9.50;76.50;;;;;;5010090;28;20068;-68
2021/07/16 07:26:16;;;;;;;6.40;2.75;;;9.60;76.60;;;;;;5009711;28;20117;-67
2021/07/16 07:28:43;;;;;;;7.43;2.67;;;9.60;76.60;;;;;;5008894;28;20033;-67
2021/07/16 07:31:09;;;;;;;8.50;3.10;;;9.70;76.60;;;;;;5013321;28;20015;-67
2021/07/16 07:33:36;;;;;;;5.38;2.63;;;9.80;76.70;;;;;;5007925;28;20413;-67
2021/07/16 07:36:02;;;;;;;5.00;3.13;;;9.80;76.60;;;;;;5012436;28;20029;-67
2021/07/16 07:38:32;;;;;;;9.98;3.50;;;9.90;76.60;;;;;;5008768;28;20026;-67
2021/07/16 07:41:00;;;;;;;10.25;3.85;;;10.00;76.50;;;;;;5011631;28;20018;-67
2021/07/16 07:43:26;;;;;;;8.75;3.75;;;10.10;76.40;;;;;;5012546;28;20105;-67
2021/07/16 07:45:54;;;;;;;5.70;2.85;;;10.10;76.40;;;;;;5000778;28;20786;-67
2021/07/16 07:48:21;;;;;;;4.18;3.22;;;10.20;76.50;;;;;;5012471;28;20030;-68
2021/07/16 07:50:48;;;;;;;15.93;3.40;;;10.20;76.50;;;;;;5012673;28;20025;-68
2021/07/16 07:53:15;;;;;;;15.88;3.78;;;10.30;76.10;;;;;;5016109;28;20420;-68
2021/07/16 07:55:42;;;;;;;13.70;4.95;;;10.40;76.40;;;;;;5014684;28;20373;-68
2021/07/16 07:58:09;;;;;;;15.40;5.18;;;10.40;76.40;;;;;;5015128;28;20025;-67
2021/07/16 08:00:36;;;;;;;24.20;7.53;;;10.50;76.50;;;;;;5013824;28;20040;-68
2021/07/16 08:03:02;;;;;;;20.52;8.20;;;10.60;76.60;;;;;;5012413;28;20038;-67
2021/07/16 08:05:29;;;;;;;36.05;11.13;;;10.60;76.50;;;;;;5014593;28;20103;-67
2021/07/16 08:07:55;;;;;;;42.95;14.60;;;10.70;76.60;;;;;;5012792;28;20025;-67
2021/07/16 08:10:22;;;;;;;32.45;16.02;;;10.80;76.70;;;;;;5015392;28;20124;-68
2021/07/16 08:12:50;;;;;;;54.08;23.10;;;10.90;76.80;;;;;;5012229;28;20484;-68
2021/07/16 08:15:17;;;;;;;50.17;25.58;;;11.00;77.00;;;;;;5013610;28;20100;-68
2021/07/16 08:17:44;;;;;;;49.15;25.80;;;11.00;77.10;;;;;;5013815;28;20498;-68
2021/07/16 08:20:11;;;;;;;42.80;24.27;;;11.10;77.30;;;;;;5013226;28;20029;-67
2021/07/16 08:22:39;;;;;;;40.22;20.98;;;11.20;77.30;;;;;;5014007;28;20009;-67
2021/07/16 08:25:07;;;;;;;42.95;20.70;;;11.30;77.30;;;;;;5011636;28;20073;-66
2021/07/16 08:27:34;;;;;;;29.88;16.17;;;11.40;77.00;;;;;;5014215;28;20029;-67
2021/07/16 08:30:00;;;;;;;27.65;15.20;;;11.50;76.90;;;;;;5010889;28;20046;-68
2021/07/16 08:32:27;;;;;;;33.10;13.82;;;11.50;76.70;;;;;;5013622;28;20018;-68
2021/07/16 08:34:53;;;;;;;34.47;14.25;;;11.60;76.70;;;;;;5011380;28;20021;-67
2021/07/16 08:37:20;;;;;;;23.60;11.93;;;11.80;77.20;;;;;;5013692;28;20041;-68
2021/07/16 08:39:46;;;;;;;42.03;15.77;;;11.80;77.40;;;;;;5012716;28;20387;-68
2021/07/16 08:42:17;;;;;;;38.88;17.02;;;12.00;77.30;;;;;;5011769;28;20109;-67
2021/07/16 08:44:44;;;;;;;22.70;12.85;;;12.00;77.00;;;;;;5012060;28;20077;-68
2021/07/16 08:47:11;;;;;;;18.73;9.40;;;12.10;75.00;;;;;;5016261;28;20026;-68
2021/07/16 08:49:41;;;;;;;12.30;6.60;;;12.30;74.40;;;;;;5014870;28;20480;-68
2021/07/16 08:52:08;;;;;;;12.18;7.20;;;12.40;73.30;;;;;;5013914;28;21172;-68
2021/07/16 08:54:45;;;;;;;13.95;5.78;;;12.50;73.40;;;;;;5011346;28;20022;-68
2021/07/16 08:57:13;;;;;;;13.38;6.43;;;12.50;73.20;;;;;;5012631;28;20385;-68
2021/07/16 08:59:40;;;;;;;23.25;7.13;;;12.60;72.30;;;;;;5012375;28;20026;-68
2021/07/16 09:02:07;;;;;;;16.85;6.45;;;12.70;71.80;;;;;;5012767;28;20029;-68
2021/07/16 09:04:43;;;;;;;18.48;5.18;;;12.80;71.10;;;;;;5012509;28;20037;-67
2021/07/16 09:07:10;;;;;;;21.23;6.43;;;13.00;70.80;;;;;;5011193;28;20030;-68
2021/07/16 09:09:37;;;;;;;12.73;4.63;;;13.00;70.50;;;;;;5011280;28;20448;-68
2021/07/16 09:12:14;;;;;;;12.68;3.95;;;13.10;70.00;;;;;;5012297;28;20473;-68
2021/07/16 09:14:42;;;;;;;16.77;4.80;;;13.20;69.90;;;;;;5012465;28;20520;-68
2021/07/16 09:17:14;;;;;;;12.70;4.88;;;13.30;68.50;;;;;;5010290;28;20026;-68
2021/07/16 09:19:42;;;;;;;13.60;6.50;;;13.40;66.80;;;;;;5012666;28;20048;-68
2021/07/16 09:22:13;;;;;;;20.80;7.18;;;13.60;67.50;;;;;;5011581;28;20021;-68
2021/07/16 09:24:44;;;;;;;8.60;6.22;;;13.70;67.40;;;;;;5011467;28;20041;-68
2021/07/16 09:27:33;;;;;;;20.58;5.45;;;13.90;67.00;;;;;;5013054;28;20032;-68
2021/07/16 09:30:12;;;;;;;8.25;4.55;;;14.00;65.80;;;;;;5009709;28;20388;-66
2021/07/16 09:32:40;;;;;;;10.10;6.18;;;14.10;66.10;;;;;;5010970;28;20132;-66
2021/07/16 09:35:08;;;;;;;13.52;4.13;;;14.30;65.70;;;;;;5011330;28;20021;-66
2021/07/16 09:37:48;;;;;;;11.15;4.13;;;14.40;65.30;;;;;;5011997;28;20163;-66
2021/07/16 09:40:21;;;;;;;9.45;4.38;;;14.50;65.20;;;;;;5012551;28;20109;-66
2021/07/16 09:42:47;;;;;;;10.95;4.57;;;14.60;63.30;;;;;;5010499;28;20017;-66
2021/07/16 09:45:15;;;;;;;19.85;5.82;;;14.80;63.30;;;;;;5012240;28;20042;-66
2021/07/16 09:47:41;;;;;;;9.68;4.20;;;14.90;60.60;;;;;;5005535;28;20446;-66
2021/07/16 09:50:12;;;;;;;11.90;4.43;;;15.00;58.30;;;;;;5009299;28;20587;-66
2021/07/16 09:52:38;;;;;;;14.90;4.78;;;15.10;57.30;;;;;;5009053;28;20014;-66
2021/07/16 09:55:20;;;;;;;15.15;5.45;;;15.10;57.80;;;;;;5010494;28;20119;-67
2021/07/16 09:57:49;;;;;;;11.25;3.72;;;15.20;57.00;;;;;;5008407;28;20095;-66
2021/07/16 10:00:18;;;;;;;35.55;24.50;;;15.30;55.10;;;;;;5005896;28;20046;-66
2021/07/16 10:02:51;;;;;;;345.10;283.10;;;15.50;53.70;;;;;;5009890;28;20096;-66
2021/07/16 10:05:17;;;;;;;47.30;26.88;;;15.60;55.70;;;;;;5009595;28;20034;-67
2021/07/16 10:07:45;;;;;;;66.22;46.15;;;15.70;53.60;;;;;;5010361;28;20469;-66
2021/07/16 10:10:19;;;;;;;16.15;8.10;;;15.90;55.50;;;;;;5009347;28;20030;-66
2021/07/16 10:12:47;;;;;;;15.23;6.75;;;16.00;54.70;;;;;;5010862;28;20108;-66
2021/07/16 10:15:16;;;;;;;10.20;4.80;;;16.10;54.70;;;;;;5011444;28;20030;-66
2021/07/16 10:17:43;;;;;;;8.82;4.70;;;16.20;55.50;;;;;;5008822;28;20053;-65
2021/07/16 10:20:15;;;;;;;14.63;5.25;;;16.30;54.00;;;;;;5009756;28;20972;-66
2021/07/16 10:22:43;;;;;;;10.90;5.03;;;16.50;54.70;;;;;;5012877;28;20084;-66
2021/07/16 10:25:16;;;;;;;11.30;5.65;;;16.60;54.60;;;;;;5009158;28;20030;-66
2021/07/16 10:27:43;;;;;;;15.65;5.38;;;16.70;53.50;;;;;;5001926;28;20089;-66
2021/07/16 10:30:13;;;;;;;11.82;4.82;;;16.80;52.70;;;;;;5009189;28;20029;-66
2021/07/16 10:32:50;;;;;;;11.93;6.03;;;16.90;52.80;;;;;;5008985;28;20018;-66
2021/07/16 10:35:29;;;;;;;12.80;6.18;;;17.10;53.20;;;;;;5008046;28;20113;-66
2021/07/16 10:38:48;;;;;;;10.75;5.15;;;17.10;51.40;;;;;;5011748;28;20114;-66
2021/07/16 10:41:31;;;;;;;13.05;4.88;;;17.30;50.40;;;;;;4987736;28;20038;-66
2021/07/16 10:43:57;;;;;;;8.27;3.90;;;17.50;50.10;;;;;;5006588;28;20385;-67
2021/07/16 10:46:31;;;;;;;9.90;3.72;;;17.60;49.60;;;;;;5009616;28;20022;-66
2021/07/16 10:48:58;;;;;;;10.57;3.20;;;17.80;50.00;;;;;;5009530;28;20074;-66
2021/07/16 10:51:30;;;;;;;8.27;3.88;;;17.90;50.10;;;;;;5010142;28;20512;-66
2021/07/16 10:53:58;;;;;;;4.68;2.00;;;18.00;48.50;;;;;;5009489;28;20022;-66
2021/07/16 10:56:45;;;;;;;3.05;1.77;;;18.10;46.40;;;;;;5010099;28;20006;-66
2021/07/16 10:59:48;;;;;;;2.55;1.77;;;18.20;46.40;;;;;;5009348;28;20114;-66
2021/07/16 11:02:43;;;;;;;5.05;3.25;;;18.30;46.60;;;;;;5008560;28;20497;-66
2021/07/16 11:05:42;;;;;;;2.20;1.33;;;18.50;43.90;;;;;;5007971;28;20676;-66
2021/07/16 11:08:26;;;;;;;8.10;1.60;;;18.50;43.10;;;;;;5003202;28;20414;-66
2021/07/16 11:11:07;;;;;;;4.30;1.15;;;18.60;41.60;;;;;;5012361;28;20034;-66
2021/07/16 11:13:44;;;;;;;2.58;1.10;;;18.70;40.90;;;;;;5008228;28;20473;-66
2021/07/16 11:16:18;;;;;;;1.50;1.00;;;18.80;42.80;;;;;;5009792;28;20028;-66
2021/07/16 11:18:57;;;;;;;2.90;0.90;;;18.80;42.70;;;;;;5007146;28;20038;-66
2021/07/16 11:21:48;;;;;;;1.67;0.85;;;18.90;41.60;;;;;;5011381;28;20026;-66
2021/07/16 11:24:21;;;;;;;1.20;0.88;;;19.10;42.10;;;;;;5011981;28;20468;-66
2021/07/16 11:26:56;;;;;;;1.10;0.85;;;19.20;42.20;;;;;;5007350;28;20500;-65
2021/07/16 11:29:23;;;;;;;;;;;19.30;41.30;;;;;;5009213;28;20071;-65
2021/07/16 11:32:12;;;;;;;6.35;1.45;;;19.40;41.50;;;;;;5008225;28;19917;-66
2021/07/16 11:34:59;;;;;;;7.78;1.60;;;19.40;42.70;;;;;;5009803;28;20018;-66
2021/07/16 11:37:25;;;;;;;2.67;1.10;;;19.50;41.00;;;;;;5008687;28;20134;-72
2021/07/16 11:39:54;;;;;;;2.58;0.80;;;19.50;39.60;;;;;;5008802;28;20495;-66
2021/07/16 11:42:21;;;;;;;39.33;31.40;;;19.50;37.30;;;;;;5011732;28;20053;-66
2021/07/16 11:44:48;;;;;;;30.33;23.25;;;19.60;37.10;;;;;;5008432;28;20453;-67
2021/07/16 11:47:26;;;;;;;7.40;5.88;;;19.50;37.30;;;;;;5006463;28;20032;-67
2021/07/16 11:49:59;;;;;;;6.20;2.42;;;19.60;36.40;;;;;;5010019;28;20045;-67
2021/07/16 11:52:31;;;;;;;2.50;1.20;;;19.60;37.20;;;;;;5008778;28;20473;-68
2021/07/16 11:55:06;;;;;;;3.58;1.30;;;19.70;35.40;;;;;;5012251;28;20454;-67
2021/07/16 11:57:33;;;;;;;5.57;1.25;;;19.70;35.70;;;;;;5008998;28;20026;-67
2021/07/16 12:00:00;;;;;;;8.68;2.08;;;19.80;35.40;;;;;;5011838;28;20036;-67
2021/07/16 12:02:27;;;;;;;6.90;1.90;;;19.90;35.80;;;;;;5009079;28;20010;-67
2021/07/16 12:05:02;;;;;;;5.22;1.52;;;19.90;36.50;;;;;;5010040;28;21954;-67
2021/07/16 12:07:39;;;;;;;4.07;1.77;;;19.90;36.00;;;;;;5011258;28;20029;-68
2021/07/16 12:10:15;;;;;;;9.63;4.50;;;20.00;35.60;;;;;;5010611;28;20034;-67
2021/07/16 12:12:43;;;;;;;8.45;3.92;;;20.00;35.80;;;;;;5012489;28;20030;-67
2021/07/16 12:15:15;;;;;;;8.30;3.10;;;20.00;38.40;;;;;;5008733;28;20473;-68
2021/07/16 12:17:55;;;;;;;6.30;3.03;;;20.00;37.60;;;;;;5008795;28;20042;-67
2021/07/16 12:20:29;;;;;;;10.10;4.13;;;20.00;38.60;;;;;;5009325;28;20022;-67
2021/07/16 12:22:57;;;;;;;11.98;4.95;;;19.90;39.60;;;;;;5011318;28;20018;-68
2021/07/16 12:25:23;;;;;;;20.52;6.97;;;19.90;42.20;;;;;;5010372;28;20066;-70
2021/07/16 12:28:09;;;;;;;14.50;5.72;;;20.00;43.20;;;;;;5009032;28;20101;-69
2021/07/16 12:30:39;;;;;;;16.02;5.00;;;19.90;42.60;;;;;;5013530;28;20032;-68
2021/07/16 12:33:07;;;;;;;20.73;6.65;;;20.00;42.10;;;;;;5014561;28;20602;-68
2021/07/16 12:35:45;;;;;;;13.48;3.83;;;19.90;43.40;;;;;;5011314;28;20101;-68
2021/07/16 12:38:15;;;;;;;8.68;3.90;;;19.90;43.10;;;;;;5012547;28;20025;-67
2021/07/16 12:40:44;;;;;;;9.48;3.53;;;19.80;44.20;;;;;;5012045;28;20428;-68
2021/07/16 12:43:15;;;;;;;13.43;3.85;;;19.80;43.70;;;;;;5012091;28;20025;-67
2021/07/16 12:45:52;;;;;;;462.13;342.48;;;19.70;44.50;;;;;;5011385;28;20022;-67
2021/07/16 12:48:28;;;;;;;100.93;79.97;;;19.80;46.70;;;;;;5014913;28;20018;-67
2021/07/16 12:51:05;;;;;;;11.27;6.13;;;19.80;47.20;;;;;;5011567;28;20469;-67
2021/07/16 12:53:34;;;;;;;6.95;4.00;;;19.80;46.70;;;;;;5010670;28;20080;-67
2021/07/16 12:56:18;;;;;;;7.47;4.13;;;19.90;47.10;;;;;;5016985;28;20477;-67
2021/07/16 12:58:46;;;;;;;13.43;3.92;;;19.80;48.00;;;;;;5011621;28;20056;-68